sensor_id;sensor_type;location;lat;lon;timestamp;P1;durP1;ratioP1;P2;durP2;ratioP2
21905;SDS011;11117;48.644;9.006;2024-01-15T00:01:27;35.27;;;13.87;;
21905;SDS011;11117;48.644;9.006;2024-01-15T00:03:59;33.77;;;13.20;;
21905;SDS011;11117;48.644;9.006;2024-01-15T00:06:24;36.93;;;12.43;;
21905;SDS011;11117;48.644;9.006;2024-01-15T00:08:50;34.57;;;13.00;;
21905;SDS011;11117;48.644;9.006;2024-01-15T00:11:16;33.47;;;12.90;;
21905;SDS011;11117;48.644;9.006;2024-01-15T00:13:41;30.70;;;12.50;;
21905;SDS011;11117;48.644;9.006;2024-01-15T00:16:07;36.07;;;13.40;;
21905;SDS011;11117;48.644;9.006;2024-01-15T00:18:32;30.93;;;11.60;;
21905;SDS011;11117;48.644;9.006;2024-01-15T00:20:58;32.93;;;12.50;;
21905;SDS011;11117;48.644;9.006;2024-01-15T00:23:23;33.23;;;12.97;;
21905;SDS011;11117;48.644;9.006;2024-01-15T00:25:50;28.70;;;12.50;;
21905;SDS011;11117;48.644;9.006;2024-01-15T00:28:16;31.63;;;12.37;;
21905;SDS011;11117;48.644;9.006;2024-01-15T00:30:42;32.17;;;13.10;;
21905;SDS011;11117;48.644;9.006;2024-01-15T00:33:07;32.97;;;12.60;;
21905;SDS011;11117;48.644;9.006;2024-01-15T00:35:33;30.47;;;11.83;;
21905;SDS011;11117;48.644;9.006;2024-01-15T00:37:58;32.60;;;12.23;;
21905;SDS011;11117;48.644;9.006;2024-01-15T00:40:24;30.13;;;12.00;;
21905;SDS011;11117;48.644;9.006;2024-01-15T00:42:49;32.37;;;12.07;;
21905;SDS011;11117;48.644;9.006;2024-01-15T00:45:15;29.17;;;10.53;;
21905;SDS011;11117;48.644;9.006;2024-01-15T00:47:41;31.37;;;11.20;;
21905;SDS011;11117;48.644;9.006;2024-01-15T00:50:06;26.13;;;9.77;;
21905;SDS011;11117;48.644;9.006;2024-01-15T00:52:32;22.00;;;8.63;;
21905;SDS011;11117;48.644;9.006;2024-01-15T00:54:57;28.07;;;10.60;;
21905;SDS011;11117;48.644;9.006;2024-01-15T00:57:23;28.17;;;11.47;;
21905;SDS011;11117;48.644;9.006;2024-01-15T00:59:49;24.60;;;9.57;;
21905;SDS011;11117;48.644;9.006;2024-01-15T01:02:14;28.07;;;8.97;;
21905;SDS011;11117;48.644;9.006;2024-01-15T01:04:40;24.00;;;8.10;;
21905;SDS011;11117;48.644;9.006;2024-01-15T01:07:06;20.87;;;7.13;;
21905;SDS011;11117;48.644;9.006;2024-01-15T01:09:31;25.40;;;8.93;;
21905;SDS011;11117;48.644;9.006;2024-01-15T01:11:57;24.13;;;8.63;;
21905;SDS011;11117;48.644;9.006;2024-01-15T01:14:22;21.33;;;7.50;;
21905;SDS011;11117;48.644;9.006;2024-01-15T01:16:48;24.40;;;9.73;;
21905;SDS011;11117;48.644;9.006;2024-01-15T01:19:13;29.20;;;9.43;;
21905;SDS011;11117;48.644;9.006;2024-01-15T01:21:39;28.60;;;10.47;;
21905;SDS011;11117;48.644;9.006;2024-01-15T01:24:04;28.97;;;9.53;;
21905;SDS011;11117;48.644;9.006;2024-01-15T01:26:30;28.97;;;9.93;;
21905;SDS011;11117;48.644;9.006;2024-01-15T01:28:59;25.77;;;8.73;;
21905;SDS011;11117;48.644;9.006;2024-01-15T01:31:25;23.70;;;7.90;;
21905;SDS011;11117;48.644;9.006;2024-01-15T01:33:50;24.03;;;7.23;;
21905;SDS011;11117;48.644;9.006;2024-01-15T01:36:16;26.57;;;9.63;;
21905;SDS011;11117;48.644;9.006;2024-01-15T01:38:41;26.37;;;9.93;;
21905;SDS011;11117;48.644;9.006;2024-01-15T01:41:07;22.83;;;8.47;;
21905;SDS011;11117;48.644;9.006;2024-01-15T01:43:32;29.47;;;10.57;;
21905;SDS011;11117;48.644;9.006;2024-01-15T01:45:58;26.43;;;9.20;;
21905;SDS011;11117;48.644;9.006;2024-01-15T01:48:25;17.53;;;7.37;;
21905;SDS011;11117;48.644;9.006;2024-01-15T01:50:55;26.33;;;9.53;;
21905;SDS011;11117;48.644;9.006;2024-01-15T01:53:24;27.53;;;10.00;;
21905;SDS011;11117;48.644;9.006;2024-01-15T01:55:51;29.57;;;8.80;;
21905;SDS011;11117;48.644;9.006;2024-01-15T01:58:18;24.00;;;10.13;;
21905;SDS011;11117;48.644;9.006;2024-01-15T02:00:45;26.80;;;9.93;;
21905;SDS011;11117;48.644;9.006;2024-01-15T02:03:11;23.90;;;9.63;;
21905;SDS011;11117;48.644;9.006;2024-01-15T02:05:38;24.40;;;9.07;;
21905;SDS011;11117;48.644;9.006;2024-01-15T02:08:05;29.23;;;10.10;;
21905;SDS011;11117;48.644;9.006;2024-01-15T02:10:31;24.27;;;8.50;;
21905;SDS011;11117;48.644;9.006;2024-01-15T02:12:57;27.80;;;9.53;;
21905;SDS011;11117;48.644;9.006;2024-01-15T02:15:23;24.83;;;8.77;;
21905;SDS011;11117;48.644;9.006;2024-01-15T02:17:58;32.63;;;11.23;;
21905;SDS011;11117;48.644;9.006;2024-01-15T02:20:24;26.63;;;9.93;;
21905;SDS011;11117;48.644;9.006;2024-01-15T02:22:50;28.40;;;9.90;;
21905;SDS011;11117;48.644;9.006;2024-01-15T02:25:15;29.20;;;10.13;;
21905;SDS011;11117;48.644;9.006;2024-01-15T02:27:41;26.70;;;8.87;;
21905;SDS011;11117;48.644;9.006;2024-01-15T02:30:08;26.23;;;10.23;;
21905;SDS011;11117;48.644;9.006;2024-01-15T02:32:38;27.30;;;10.33;;
21905;SDS011;11117;48.644;9.006;2024-01-15T02:35:04;24.77;;;10.00;;
21905;SDS011;11117;48.644;9.006;2024-01-15T02:37:30;28.60;;;10.30;;
21905;SDS011;11117;48.644;9.006;2024-01-15T02:39:55;31.20;;;10.73;;
21905;SDS011;11117;48.644;9.006;2024-01-15T02:42:21;28.23;;;11.13;;
21905;SDS011;11117;48.644;9.006;2024-01-15T02:44:46;30.50;;;11.27;;
21905;SDS011;11117;48.644;9.006;2024-01-15T02:47:12;28.77;;;11.00;;
21905;SDS011;11117;48.644;9.006;2024-01-15T02:49:38;27.77;;;10.57;;
21905;SDS011;11117;48.644;9.006;2024-01-15T02:52:03;30.37;;;11.43;;
21905;SDS011;11117;48.644;9.006;2024-01-15T02:54:29;29.07;;;10.97;;
21905;SDS011;11117;48.644;9.006;2024-01-15T02:56:54;32.53;;;10.83;;
21905;SDS011;11117;48.644;9.006;2024-01-15T02:59:20;30.07;;;11.13;;
21905;SDS011;11117;48.644;9.006;2024-01-15T03:01:45;29.50;;;10.20;;
21905;SDS011;11117;48.644;9.006;2024-01-15T03:04:11;33.70;;;11.30;;
21905;SDS011;11117;48.644;9.006;2024-01-15T03:06:37;35.43;;;10.87;;
21905;SDS011;11117;48.644;9.006;2024-01-15T03:09:02;26.20;;;10.33;;
21905;SDS011;11117;48.644;9.006;2024-01-15T03:11:28;34.33;;;11.23;;
21905;SDS011;11117;48.644;9.006;2024-01-15T03:13:57;31.13;;;11.13;;
21905;SDS011;11117;48.644;9.006;2024-01-15T03:16:24;27.93;;;10.70;;
21905;SDS011;11117;48.644;9.006;2024-01-15T03:18:49;32.10;;;11.57;;
21905;SDS011;11117;48.644;9.006;2024-01-15T03:21:15;27.50;;;10.70;;
21905;SDS011;11117;48.644;9.006;2024-01-15T03:23:40;33.20;;;10.63;;
21905;SDS011;11117;48.644;9.006;2024-01-15T03:26:06;31.37;;;10.60;;
21905;SDS011;11117;48.644;9.006;2024-01-15T03:28:31;27.90;;;10.17;;
21905;SDS011;11117;48.644;9.006;2024-01-15T03:30:57;29.67;;;10.27;;
21905;SDS011;11117;48.644;9.006;2024-01-15T03:33:23;23.40;;;9.07;;
21905;SDS011;11117;48.644;9.006;2024-01-15T03:35:48;23.67;;;8.43;;
21905;SDS011;11117;48.644;9.006;2024-01-15T03:38:14;16.00;;;4.90;;
21905;SDS011;11117;48.644;9.006;2024-01-15T03:40:39;17.10;;;5.67;;
21905;SDS011;11117;48.644;9.006;2024-01-15T03:43:05;12.00;;;4.30;;
21905;SDS011;11117;48.644;9.006;2024-01-15T03:45:30;17.37;;;6.07;;
21905;SDS011;11117;48.644;9.006;2024-01-15T03:47:56;26.20;;;8.70;;
21905;SDS011;11117;48.644;9.006;2024-01-15T03:50:21;16.63;;;6.57;;
21905;SDS011;11117;48.644;9.006;2024-01-15T03:52:47;22.20;;;7.80;;
21905;SDS011;11117;48.644;9.006;2024-01-15T03:55:12;29.90;;;7.50;;
21905;SDS011;11117;48.644;9.006;2024-01-15T03:57:38;19.23;;;6.20;;
21905;SDS011;11117;48.644;9.006;2024-01-15T04:00:04;28.10;;;9.97;;
21905;SDS011;11117;48.644;9.006;2024-01-15T04:02:30;24.57;;;8.77;;
21905;SDS011;11117;48.644;9.006;2024-01-15T04:04:55;28.23;;;9.80;;
21905;SDS011;11117;48.644;9.006;2024-01-15T04:07:21;26.53;;;8.80;;
21905;SDS011;11117;48.644;9.006;2024-01-15T04:09:46;32.17;;;10.67;;
21905;SDS011;11117;48.644;9.006;2024-01-15T04:12:12;31.17;;;11.20;;
21905;SDS011;11117;48.644;9.006;2024-01-15T04:14:37;33.17;;;11.67;;
21905;SDS011;11117;48.644;9.006;2024-01-15T04:17:03;31.13;;;11.43;;
21905;SDS011;11117;48.644;9.006;2024-01-15T04:19:29;20.77;;;6.50;;
21905;SDS011;11117;48.644;9.006;2024-01-15T04:21:54;26.63;;;10.57;;
21905;SDS011;11117;48.644;9.006;2024-01-15T04:24:20;34.13;;;12.13;;
21905;SDS011;11117;48.644;9.006;2024-01-15T04:26:45;32.97;;;11.67;;
21905;SDS011;11117;48.644;9.006;2024-01-15T04:29:11;32.83;;;11.13;;
21905;SDS011;11117;48.644;9.006;2024-01-15T04:31:36;30.43;;;10.50;;
21905;SDS011;11117;48.644;9.006;2024-01-15T04:34:02;29.33;;;11.13;;
21905;SDS011;11117;48.644;9.006;2024-01-15T04:36:27;31.10;;;11.73;;
21905;SDS011;11117;48.644;9.006;2024-01-15T04:38:59;32.03;;;10.90;;
21905;SDS011;11117;48.644;9.006;2024-01-15T04:41:24;32.73;;;11.47;;
21905;SDS011;11117;48.644;9.006;2024-01-15T04:43:50;27.83;;;10.43;;
21905;SDS011;11117;48.644;9.006;2024-01-15T04:46:15;33.07;;;10.40;;
21905;SDS011;11117;48.644;9.006;2024-01-15T04:48:41;33.63;;;12.00;;
21905;SDS011;11117;48.644;9.006;2024-01-15T04:51:08;32.97;;;12.20;;
21905;SDS011;11117;48.644;9.006;2024-01-15T04:53:34;28.87;;;10.67;;
21905;SDS011;11117;48.644;9.006;2024-01-15T04:56:00;29.40;;;10.17;;
21905;SDS011;11117;48.644;9.006;2024-01-15T04:58:25;26.73;;;8.33;;
21905;SDS011;11117;48.644;9.006;2024-01-15T05:00:51;29.90;;;11.60;;
21905;SDS011;11117;48.644;9.006;2024-01-15T05:03:16;31.20;;;11.07;;
21905;SDS011;11117;48.644;9.006;2024-01-15T05:05:42;29.03;;;9.30;;
21905;SDS011;11117;48.644;9.006;2024-01-15T05:08:08;29.27;;;9.50;;
21905;SDS011;11117;48.644;9.006;2024-01-15T05:10:33;28.30;;;10.40;;
21905;SDS011;11117;48.644;9.006;2024-01-15T05:12:59;29.57;;;10.10;;
21905;SDS011;11117;48.644;9.006;2024-01-15T05:15:24;30.03;;;11.50;;
21905;SDS011;11117;48.644;9.006;2024-01-15T05:17:50;25.20;;;10.70;;
21905;SDS011;11117;48.644;9.006;2024-01-15T05:20:15;30.83;;;11.27;;
21905;SDS011;11117;48.644;9.006;2024-01-15T05:22:41;31.13;;;10.20;;
21905;SDS011;11117;48.644;9.006;2024-01-15T05:25:06;34.47;;;12.70;;
21905;SDS011;11117;48.644;9.006;2024-01-15T05:27:32;36.03;;;12.13;;
21905;SDS011;11117;48.644;9.006;2024-01-15T05:29:58;30.80;;;12.17;;
21905;SDS011;11117;48.644;9.006;2024-01-15T05:32:23;30.40;;;11.00;;
21905;SDS011;11117;48.644;9.006;2024-01-15T05:34:49;30.60;;;11.80;;
21905;SDS011;11117;48.644;9.006;2024-01-15T05:37:14;31.63;;;11.80;;
21905;SDS011;11117;48.644;9.006;2024-01-15T05:39:40;26.97;;;10.03;;
21905;SDS011;11117;48.644;9.006;2024-01-15T05:42:05;30.00;;;11.03;;
21905;SDS011;11117;48.644;9.006;2024-01-15T05:44:31;29.70;;;10.33;;
21905;SDS011;11117;48.644;9.006;2024-01-15T05:46:57;31.40;;;11.40;;
21905;SDS011;11117;48.644;9.006;2024-01-15T05:49:22;28.33;;;10.63;;
21905;SDS011;11117;48.644;9.006;2024-01-15T05:51:48;27.60;;;11.07;;
21905;SDS011;11117;48.644;9.006;2024-01-15T05:54:13;28.27;;;13.50;;
21905;SDS011;11117;48.644;9.006;2024-01-15T05:56:39;26.10;;;11.83;;
21905;SDS011;11117;48.644;9.006;2024-01-15T05:59:06;29.27;;;11.90;;
21905;SDS011;11117;48.644;9.006;2024-01-15T06:01:31;30.47;;;11.67;;
21905;SDS011;11117;48.644;9.006;2024-01-15T06:03:59;34.80;;;13.67;;
21905;SDS011;11117;48.644;9.006;2024-01-15T06:06:25;33.37;;;12.53;;
21905;SDS011;11117;48.644;9.006;2024-01-15T06:08:50;30.87;;;12.43;;
21905;SDS011;11117;48.644;9.006;2024-01-15T06:11:16;28.10;;;12.50;;
21905;SDS011;11117;48.644;9.006;2024-01-15T06:13:41;33.47;;;12.33;;
21905;SDS011;11117;48.644;9.006;2024-01-15T06:16:16;30.97;;;11.60;;
21905;SDS011;11117;48.644;9.006;2024-01-15T06:18:41;31.77;;;12.77;;
21905;SDS011;11117;48.644;9.006;2024-01-15T06:21:07;30.77;;;13.20;;
21905;SDS011;11117;48.644;9.006;2024-01-15T06:23:33;31.83;;;11.67;;
21905;SDS011;11117;48.644;9.006;2024-01-15T06:25:58;33.17;;;13.17;;
21905;SDS011;11117;48.644;9.006;2024-01-15T06:28:24;31.33;;;12.77;;
21905;SDS011;11117;48.644;9.006;2024-01-15T06:30:49;29.67;;;12.87;;
21905;SDS011;11117;48.644;9.006;2024-01-15T06:33:15;36.37;;;13.43;;
21905;SDS011;11117;48.644;9.006;2024-01-15T06:35:40;35.40;;;13.27;;
21905;SDS011;11117;48.644;9.006;2024-01-15T06:38:06;35.93;;;13.37;;
21905;SDS011;11117;48.644;9.006;2024-01-15T06:40:31;28.97;;;11.93;;
21905;SDS011;11117;48.644;9.006;2024-01-15T06:42:57;33.40;;;13.47;;
21905;SDS011;11117;48.644;9.006;2024-01-15T06:45:23;30.23;;;12.53;;
21905;SDS011;11117;48.644;9.006;2024-01-15T06:47:48;32.13;;;12.63;;
21905;SDS011;11117;48.644;9.006;2024-01-15T06:50:14;30.40;;;12.77;;
21905;SDS011;11117;48.644;9.006;2024-01-15T06:52:39;27.93;;;13.03;;
21905;SDS011;11117;48.644;9.006;2024-01-15T06:55:05;28.23;;;12.23;;
21905;SDS011;11117;48.644;9.006;2024-01-15T06:57:31;27.60;;;12.23;;
21905;SDS011;11117;48.644;9.006;2024-01-15T06:59:57;31.03;;;12.83;;
21905;SDS011;11117;48.644;9.006;2024-01-15T07:02:22;29.97;;;12.27;;
21905;SDS011;11117;48.644;9.006;2024-01-15T07:04:48;29.43;;;12.43;;
21905;SDS011;11117;48.644;9.006;2024-01-15T07:07:13;31.10;;;12.87;;
21905;SDS011;11117;48.644;9.006;2024-01-15T07:09:39;28.47;;;11.90;;
21905;SDS011;11117;48.644;9.006;2024-01-15T07:12:05;26.73;;;11.70;;
21905;SDS011;11117;48.644;9.006;2024-01-15T07:14:31;30.50;;;12.40;;
21905;SDS011;11117;48.644;9.006;2024-01-15T07:16:56;23.30;;;10.50;;
21905;SDS011;11117;48.644;9.006;2024-01-15T07:19:22;28.33;;;11.03;;
21905;SDS011;11117;48.644;9.006;2024-01-15T07:21:47;26.57;;;11.30;;
21905;SDS011;11117;48.644;9.006;2024-01-15T07:24:13;28.00;;;11.30;;
21905;SDS011;11117;48.644;9.006;2024-01-15T07:26:38;24.17;;;10.73;;
21905;SDS011;11117;48.644;9.006;2024-01-15T07:29:04;23.03;;;10.60;;
21905;SDS011;11117;48.644;9.006;2024-01-15T07:31:30;26.60;;;11.30;;
21905;SDS011;11117;48.644;9.006;2024-01-15T07:33:59;24.37;;;10.40;;
21905;SDS011;11117;48.644;9.006;2024-01-15T07:36:24;29.30;;;10.53;;
21905;SDS011;11117;48.644;9.006;2024-01-15T07:38:50;26.07;;;11.07;;
21905;SDS011;11117;48.644;9.006;2024-01-15T07:41:16;26.33;;;10.80;;
21905;SDS011;11117;48.644;9.006;2024-01-15T07:43:41;25.60;;;10.53;;
21905;SDS011;11117;48.644;9.006;2024-01-15T07:46:07;25.17;;;10.80;;
21905;SDS011;11117;48.644;9.006;2024-01-15T07:48:32;27.57;;;10.73;;
21905;SDS011;11117;48.644;9.006;2024-01-15T07:50:58;22.93;;;10.63;;
21905;SDS011;11117;48.644;9.006;2024-01-15T07:53:23;25.20;;;10.10;;
21905;SDS011;11117;48.644;9.006;2024-01-15T07:55:49;26.30;;;10.77;;
21905;SDS011;11117;48.644;9.006;2024-01-15T07:58:14;22.83;;;10.07;;
21905;SDS011;11117;48.644;9.006;2024-01-15T08:00:40;25.10;;;10.37;;
21905;SDS011;11117;48.644;9.006;2024-01-15T08:03:05;23.53;;;10.80;;
21905;SDS011;11117;48.644;9.006;2024-01-15T08:05:31;24.10;;;10.40;;
21905;SDS011;11117;48.644;9.006;2024-01-15T08:07:56;24.30;;;10.27;;
21905;SDS011;11117;48.644;9.006;2024-01-15T08:10:22;25.20;;;10.07;;
21905;SDS011;11117;48.644;9.006;2024-01-15T08:12:48;27.37;;;9.20;;
21905;SDS011;11117;48.644;9.006;2024-01-15T08:15:13;20.73;;;8.43;;
21905;SDS011;11117;48.644;9.006;2024-01-15T08:17:39;17.63;;;8.60;;
21905;SDS011;11117;48.644;9.006;2024-01-15T08:20:04;20.33;;;7.63;;
21905;SDS011;11117;48.644;9.006;2024-01-15T08:22:30;19.60;;;8.53;;
21905;SDS011;11117;48.644;9.006;2024-01-15T08:24:56;17.10;;;7.97;;
21905;SDS011;11117;48.644;9.006;2024-01-15T08:27:21;19.87;;;7.87;;
21905;SDS011;11117;48.644;9.006;2024-01-15T08:29:47;22.23;;;7.97;;
21905;SDS011;11117;48.644;9.006;2024-01-15T08:32:13;17.30;;;7.53;;
21905;SDS011;11117;48.644;9.006;2024-01-15T08:34:38;17.10;;;7.27;;
21905;SDS011;11117;48.644;9.006;2024-01-15T08:37:04;16.47;;;7.90;;
21905;SDS011;11117;48.644;9.006;2024-01-15T08:39:29;14.90;;;6.37;;
21905;SDS011;11117;48.644;9.006;2024-01-15T08:41:55;14.43;;;5.60;;
21905;SDS011;11117;48.644;9.006;2024-01-15T08:44:20;10.50;;;4.90;;
21905;SDS011;11117;48.644;9.006;2024-01-15T08:46:46;9.43;;;4.57;;
21905;SDS011;11117;48.644;9.006;2024-01-15T08:49:11;12.10;;;4.17;;
21905;SDS011;11117;48.644;9.006;2024-01-15T08:51:37;11.20;;;3.87;;
21905;SDS011;11117;48.644;9.006;2024-01-15T08:54:03;15.70;;;5.37;;
21905;SDS011;11117;48.644;9.006;2024-01-15T08:56:28;11.67;;;3.87;;
21905;SDS011;11117;48.644;9.006;2024-01-15T08:58:57;8.77;;;3.43;;
21905;SDS011;11117;48.644;9.006;2024-01-15T09:01:22;12.00;;;4.00;;
21905;SDS011;11117;48.644;9.006;2024-01-15T09:03:48;13.03;;;4.23;;
21905;SDS011;11117;48.644;9.006;2024-01-15T09:06:13;11.50;;;4.47;;
21905;SDS011;11117;48.644;9.006;2024-01-15T09:08:39;11.47;;;4.90;;
21905;SDS011;11117;48.644;9.006;2024-01-15T09:11:05;20.33;;;5.30;;
21905;SDS011;11117;48.644;9.006;2024-01-15T09:13:30;10.97;;;5.07;;
21905;SDS011;11117;48.644;9.006;2024-01-15T09:15:56;11.63;;;4.50;;
21905;SDS011;11117;48.644;9.006;2024-01-15T09:18:22;10.40;;;4.97;;
21905;SDS011;11117;48.644;9.006;2024-01-15T09:20:48;15.17;;;5.70;;
21905;SDS011;11117;48.644;9.006;2024-01-15T09:23:14;15.03;;;5.30;;
21905;SDS011;11117;48.644;9.006;2024-01-15T09:25:39;16.93;;;6.87;;
21905;SDS011;11117;48.644;9.006;2024-01-15T09:28:05;16.60;;;7.00;;
21905;SDS011;11117;48.644;9.006;2024-01-15T09:30:30;14.73;;;7.23;;
21905;SDS011;11117;48.644;9.006;2024-01-15T09:32:56;12.87;;;5.77;;
21905;SDS011;11117;48.644;9.006;2024-01-15T09:35:21;17.10;;;7.33;;
21905;SDS011;11117;48.644;9.006;2024-01-15T09:37:47;15.07;;;6.37;;
21905;SDS011;11117;48.644;9.006;2024-01-15T09:40:13;15.03;;;6.40;;
21905;SDS011;11117;48.644;9.006;2024-01-15T09:42:39;17.00;;;7.20;;
21905;SDS011;11117;48.644;9.006;2024-01-15T09:45:06;14.53;;;5.17;;
21905;SDS011;11117;48.644;9.006;2024-01-15T09:47:32;14.87;;;5.93;;
21905;SDS011;11117;48.644;9.006;2024-01-15T09:49:58;13.67;;;4.93;;
21905;SDS011;11117;48.644;9.006;2024-01-15T09:52:24;12.27;;;5.07;;
21905;SDS011;11117;48.644;9.006;2024-01-15T09:54:50;16.97;;;6.67;;
21905;SDS011;11117;48.644;9.006;2024-01-15T09:57:16;11.57;;;5.27;;
21905;SDS011;11117;48.644;9.006;2024-01-15T09:59:42;14.97;;;6.37;;
21905;SDS011;11117;48.644;9.006;2024-01-15T10:02:10;16.13;;;5.53;;
21905;SDS011;11117;48.644;9.006;2024-01-15T10:04:39;12.50;;;5.00;;
21905;SDS011;11117;48.644;9.006;2024-01-15T10:07:05;15.63;;;6.30;;
21905;SDS011;11117;48.644;9.006;2024-01-15T10:09:33;12.23;;;5.30;;
21905;SDS011;11117;48.644;9.006;2024-01-15T10:11:58;12.23;;;4.63;;
21905;SDS011;11117;48.644;9.006;2024-01-15T10:14:24;10.83;;;4.07;;
21905;SDS011;11117;48.644;9.006;2024-01-15T10:16:50;15.67;;;5.50;;
21905;SDS011;11117;48.644;9.006;2024-01-15T10:19:15;14.57;;;4.53;;
21905;SDS011;11117;48.644;9.006;2024-01-15T10:21:41;12.03;;;5.00;;
21905;SDS011;11117;48.644;9.006;2024-01-15T10:24:07;11.90;;;5.30;;
21905;SDS011;11117;48.644;9.006;2024-01-15T10:26:32;15.60;;;5.63;;
21905;SDS011;11117;48.644;9.006;2024-01-15T10:28:58;16.50;;;5.77;;
21905;SDS011;11117;48.644;9.006;2024-01-15T10:31:25;13.97;;;5.73;;
21905;SDS011;11117;48.644;9.006;2024-01-15T10:33:51;13.20;;;5.13;;
21905;SDS011;11117;48.644;9.006;2024-01-15T10:36:17;11.43;;;5.17;;
21905;SDS011;11117;48.644;9.006;2024-01-15T10:38:43;16.23;;;5.13;;
21905;SDS011;11117;48.644;9.006;2024-01-15T10:41:10;12.63;;;5.17;;
21905;SDS011;11117;48.644;9.006;2024-01-15T10:43:35;10.33;;;4.67;;
21905;SDS011;11117;48.644;9.006;2024-01-15T10:46:01;11.50;;;5.80;;
21905;SDS011;11117;48.644;9.006;2024-01-15T10:48:28;13.17;;;5.33;;
21905;SDS011;11117;48.644;9.006;2024-01-15T10:50:53;11.90;;;5.70;;
21905;SDS011;11117;48.644;9.006;2024-01-15T10:53:19;10.83;;;5.27;;
21905;SDS011;11117;48.644;9.006;2024-01-15T10:55:48;9.40;;;3.80;;
21905;SDS011;11117;48.644;9.006;2024-01-15T10:58:14;11.10;;;5.57;;
21905;SDS011;11117;48.644;9.006;2024-01-15T11:00:41;13.57;;;4.77;;
21905;SDS011;11117;48.644;9.006;2024-01-15T11:03:06;10.77;;;4.43;;
21905;SDS011;11117;48.644;9.006;2024-01-15T11:05:42;14.67;;;5.43;;
21905;SDS011;11117;48.644;9.006;2024-01-15T11:08:08;12.07;;;5.70;;
21905;SDS011;11117;48.644;9.006;2024-01-15T11:10:38;14.37;;;5.80;;
21905;SDS011;11117;48.644;9.006;2024-01-15T11:13:04;15.37;;;6.10;;
21905;SDS011;11117;48.644;9.006;2024-01-15T11:15:30;14.10;;;5.80;;
21905;SDS011;11117;48.644;9.006;2024-01-15T11:18:00;12.03;;;5.60;;
21905;SDS011;11117;48.644;9.006;2024-01-15T11:20:26;14.83;;;6.10;;
21905;SDS011;11117;48.644;9.006;2024-01-15T11:22:52;13.67;;;5.93;;
21905;SDS011;11117;48.644;9.006;2024-01-15T11:25:18;15.47;;;6.10;;
21905;SDS011;11117;48.644;9.006;2024-01-15T11:27:45;12.20;;;5.57;;
21905;SDS011;11117;48.644;9.006;2024-01-15T11:30:12;14.80;;;6.67;;
21905;SDS011;11117;48.644;9.006;2024-01-15T11:32:38;12.10;;;6.40;;
21905;SDS011;11117;48.644;9.006;2024-01-15T11:35:04;14.27;;;6.60;;
21905;SDS011;11117;48.644;9.006;2024-01-15T11:40:18;32.87;;;13.67;;
21905;SDS011;11117;48.644;9.006;2024-01-15T11:42:45;21.43;;;10.30;;
21905;SDS011;11117;48.644;9.006;2024-01-15T11:45:11;28.43;;;12.40;;
21905;SDS011;11117;48.644;9.006;2024-01-15T11:50:14;15.87;;;6.90;;
21905;SDS011;11117;48.644;9.006;2024-01-15T11:52:40;21.43;;;11.50;;
21905;SDS011;11117;48.644;9.006;2024-01-15T11:55:22;16.70;;;8.40;;
21905;SDS011;11117;48.644;9.006;2024-01-15T11:58:00;16.13;;;7.40;;
21905;SDS011;11117;48.644;9.006;2024-01-15T12:00:26;14.50;;;6.83;;
21905;SDS011;11117;48.644;9.006;2024-01-15T12:02:53;15.33;;;7.23;;
21905;SDS011;11117;48.644;9.006;2024-01-15T12:05:19;15.37;;;7.27;;
21905;SDS011;11117;48.644;9.006;2024-01-15T12:07:49;16.07;;;7.10;;
21905;SDS011;11117;48.644;9.006;2024-01-15T12:10:16;13.83;;;6.50;;
21905;SDS011;11117;48.644;9.006;2024-01-15T12:15:21;13.80;;;7.03;;
21905;SDS011;11117;48.644;9.006;2024-01-15T12:17:47;15.93;;;6.87;;
21905;SDS011;11117;48.644;9.006;2024-01-15T12:20:13;15.90;;;6.80;;
21905;SDS011;11117;48.644;9.006;2024-01-15T12:22:39;19.73;;;7.20;;
21905;SDS011;11117;48.644;9.006;2024-01-15T12:25:04;14.17;;;6.50;;
21905;SDS011;11117;48.644;9.006;2024-01-15T12:27:30;14.97;;;7.40;;
21905;SDS011;11117;48.644;9.006;2024-01-15T12:29:57;15.93;;;6.77;;
21905;SDS011;11117;48.644;9.006;2024-01-15T12:32:23;14.60;;;6.83;;
21905;SDS011;11117;48.644;9.006;2024-01-15T12:34:50;13.47;;;5.50;;
21905;SDS011;11117;48.644;9.006;2024-01-15T12:37:19;14.73;;;6.60;;
21905;SDS011;11117;48.644;9.006;2024-01-15T12:39:45;13.20;;;6.37;;
21905;SDS011;11117;48.644;9.006;2024-01-15T12:42:10;15.63;;;7.07;;
21905;SDS011;11117;48.644;9.006;2024-01-15T12:44:36;14.50;;;7.60;;
21905;SDS011;11117;48.644;9.006;2024-01-15T12:47:02;10.17;;;5.17;;
21905;SDS011;11117;48.644;9.006;2024-01-15T12:49:28;15.27;;;6.03;;
21905;SDS011;11117;48.644;9.006;2024-01-15T12:51:53;13.97;;;6.20;;
21905;SDS011;11117;48.644;9.006;2024-01-15T12:54:22;16.40;;;7.27;;
21905;SDS011;11117;48.644;9.006;2024-01-15T12:56:48;13.57;;;6.23;;
21905;SDS011;11117;48.644;9.006;2024-01-15T12:59:13;14.23;;;6.80;;
21905;SDS011;11117;48.644;9.006;2024-01-15T13:01:39;15.40;;;6.87;;
21905;SDS011;11117;48.644;9.006;2024-01-15T13:04:05;15.40;;;6.93;;
21905;SDS011;11117;48.644;9.006;2024-01-15T13:06:30;14.90;;;6.83;;
21905;SDS011;11117;48.644;9.006;2024-01-15T13:08:58;17.23;;;7.53;;
21905;SDS011;11117;48.644;9.006;2024-01-15T13:11:24;14.03;;;7.07;;
21905;SDS011;11117;48.644;9.006;2024-01-15T13:13:49;12.07;;;5.83;;
21905;SDS011;11117;48.644;9.006;2024-01-15T13:16:15;14.53;;;6.00;;
21905;SDS011;11117;48.644;9.006;2024-01-15T13:18:41;13.53;;;6.70;;
21905;SDS011;11117;48.644;9.006;2024-01-15T13:21:06;65.73;;;30.17;;
21905;SDS011;11117;48.644;9.006;2024-01-15T13:23:32;15.80;;;7.83;;
21905;SDS011;11117;48.644;9.006;2024-01-15T13:25:57;15.43;;;8.17;;
21905;SDS011;11117;48.644;9.006;2024-01-15T13:28:23;17.07;;;7.73;;
21905;SDS011;11117;48.644;9.006;2024-01-15T13:30:48;14.87;;;7.03;;
21905;SDS011;11117;48.644;9.006;2024-01-15T13:33:14;14.07;;;6.37;;
21905;SDS011;11117;48.644;9.006;2024-01-15T13:35:40;35.27;;;13.40;;
21905;SDS011;11117;48.644;9.006;2024-01-15T13:38:05;13.47;;;6.13;;
21905;SDS011;11117;48.644;9.006;2024-01-15T13:40:31;13.33;;;6.60;;
21905;SDS011;11117;48.644;9.006;2024-01-15T13:42:56;12.07;;;6.87;;
21905;SDS011;11117;48.644;9.006;2024-01-15T13:45:22;14.27;;;6.13;;
21905;SDS011;11117;48.644;9.006;2024-01-15T13:47:47;15.30;;;6.90;;
21905;SDS011;11117;48.644;9.006;2024-01-15T13:50:13;17.43;;;7.80;;
21905;SDS011;11117;48.644;9.006;2024-01-15T13:52:39;15.97;;;6.90;;
21905;SDS011;11117;48.644;9.006;2024-01-15T13:55:04;16.03;;;8.57;;
21905;SDS011;11117;48.644;9.006;2024-01-15T13:57:30;15.30;;;7.67;;
21905;SDS011;11117;48.644;9.006;2024-01-15T13:59:56;16.07;;;8.30;;
21905;SDS011;11117;48.644;9.006;2024-01-15T14:02:21;16.77;;;7.80;;
21905;SDS011;11117;48.644;9.006;2024-01-15T14:04:47;16.40;;;7.37;;
21905;SDS011;11117;48.644;9.006;2024-01-15T14:07:13;14.07;;;7.40;;
21905;SDS011;11117;48.644;9.006;2024-01-15T14:09:38;15.10;;;7.33;;
21905;SDS011;11117;48.644;9.006;2024-01-15T14:12:04;15.33;;;7.50;;
21905;SDS011;11117;48.644;9.006;2024-01-15T14:14:30;16.63;;;7.97;;
21905;SDS011;11117;48.644;9.006;2024-01-15T14:16:56;18.70;;;8.67;;
21905;SDS011;11117;48.644;9.006;2024-01-15T14:19:21;15.03;;;7.60;;
21905;SDS011;11117;48.644;9.006;2024-01-15T14:21:47;14.00;;;6.93;;
21905;SDS011;11117;48.644;9.006;2024-01-15T14:24:12;18.07;;;8.40;;
21905;SDS011;11117;48.644;9.006;2024-01-15T14:26:38;65.10;;;23.37;;
21905;SDS011;11117;48.644;9.006;2024-01-15T14:29:04;60.97;;;21.07;;